GEO weather

Cheddi Jagan International Airport
Georgetown, Demerara-Mahaica, Guyana

Public forecast

Using degrees Celsius for public forecast. Weather courtesy of forecast.io.

METAR (pilot weather report)

Retrieved 2019/03/19 20:00 UTC (46 minutes ago):

SYCJ 192000Z 02010KT 9999 SCT024 30/22 Q1011 NOSIG

TAF (pilot weather forecast)

Retrieved 2019/03/19 18:21 UTC (2 hours ago):

TAF TAF COR SYCJ 191914Z 1918/2018 08012KT 9999 SCT021 BECMG 2000/2002 07006KT CAVOK